Time;durP1;ratioP1;P1;durP2;ratioP2;P2;SDS_P1;SDS_P2;PMS_P1;PMS_P2;Temp;Humidity;BMP_temperature;BMP_pressure;BME280_temperature;BME280_humidity;BME280_pressure;Samples;Min_cycle;Max_cycle;Signal;HPM_P1;HPM_P2
2022/04/21 00:00:43;;;;;;;5.60;2.80;;;9.50;99.90;;;;;;4179476;28;20218;-77
2022/04/21 00:02:46;;;;;;;4.63;2.87;;;9.50;99.90;;;;;;4174200;28;20238;-76
2022/04/21 00:04:49;;;;;;;7.03;3.13;;;9.50;99.90;;;;;;4179148;28;20289;-76
2022/04/21 00:06:50;;;;;;;4.57;2.83;;;9.50;99.90;;;;;;4179084;28;20215;-77
2022/04/21 00:08:52;;;;;;;6.43;2.90;;;9.50;99.90;;;;;;4174020;28;20222;-78
2022/04/21 00:10:54;;;;;;;8.87;3.13;;;9.50;99.90;;;;;;4176985;28;20457;-77
2022/04/21 00:12:56;;;;;;;6.20;2.87;;;9.50;99.90;;;;;;4179863;28;20230;-77
2022/04/21 00:14:58;;;;;;;5.57;2.80;;;9.40;99.90;;;;;;4179286;28;20634;-77
2022/04/21 00:17:00;;;;;;;6.20;3.00;;;9.50;99.90;;;;;;4178984;28;20268;-77
2022/04/21 00:19:01;;;;;;;6.27;2.80;;;9.50;99.90;;;;;;4174331;28;20899;-77
2022/04/21 00:21:05;;;;;;;4.17;2.67;;;9.50;99.90;;;;;;4178232;28;20838;-77
2022/04/21 00:25:27;;;;;;;6.47;3.20;;;9.40;99.90;;;;;;4172735;28;20475;-77
2022/04/21 00:27:29;;;;;;;5.87;2.57;;;9.40;99.90;;;;;;4175807;28;20488;-78
2022/04/21 00:29:31;;;;;;;7.63;3.20;;;9.40;99.90;;;;;;4178866;28;20522;-77
2022/04/21 00:31:32;;;;;;;7.40;3.00;;;9.40;99.90;;;;;;4184587;28;20207;-76
2022/04/21 00:33:34;;;;;;;4.10;2.60;;;9.40;99.90;;;;;;4186656;28;20230;-79
2022/04/21 00:35:36;;;;;;;5.90;3.03;;;9.40;99.90;;;;;;4185668;28;20206;-78
2022/04/21 00:37:46;;;;;;;5.00;2.90;;;9.40;99.90;;;;;;4174174;28;20461;-77
2022/04/21 00:39:50;;;;;;;6.67;2.60;;;9.40;99.90;;;;;;4180570;28;20945;-78
2022/04/21 00:41:56;;;;;;;4.10;2.80;;;9.40;99.90;;;;;;4182883;28;20203;-78
2022/04/21 00:43:57;;;;;;;9.27;3.10;;;9.40;99.90;;;;;;4180386;28;20515;-78
2022/04/21 00:45:59;;;;;;;7.90;2.97;;;9.40;99.90;;;;;;4173824;28;20264;-78
2022/04/21 00:48:02;;;;;;;4.30;2.87;;;9.40;99.90;;;;;;4172005;28;20493;-78
2022/04/21 00:50:05;;;;;;;5.27;2.70;;;9.40;99.90;;;;;;4178462;28;20514;-78
2022/04/21 00:52:08;;;;;;;5.43;2.93;;;9.40;99.90;;;;;;4179433;28;20473;-78
2022/04/21 00:54:11;;;;;;;6.60;3.00;;;9.40;99.90;;;;;;4177923;28;20274;-78
2022/04/21 00:56:14;;;;;;;6.43;3.30;;;9.40;99.90;;;;;;4170811;28;20206;-78
2022/04/21 00:58:16;;;;;;;5.40;2.97;;;9.30;99.90;;;;;;4179233;28;20663;-78
2022/04/21 01:00:18;;;;;;;3.90;2.97;;;9.40;99.90;;;;;;4178835;28;20469;-79
2022/04/21 01:04:41;;;;;;;4.97;3.20;;;9.30;99.90;;;;;;4167207;28;20519;-78
2022/04/21 01:06:43;;;;;;;6.03;2.83;;;9.40;99.90;;;;;;4180132;28;20457;-79
2022/04/21 01:08:44;;;;;;;5.17;2.77;;;9.30;99.90;;;;;;4179532;28;20226;-79
2022/04/21 01:10:49;;;;;;;4.93;3.13;;;9.30;99.90;;;;;;4186449;28;20609;-77
2022/04/21 01:12:51;;;;;;;6.23;2.50;;;9.30;99.90;;;;;;4187475;28;20234;-78
2022/04/21 01:14:52;;;;;;;4.67;3.03;;;9.30;99.90;;;;;;4185503;28;20202;-78
2022/04/21 01:16:54;;;;;;;4.27;2.70;;;9.30;99.90;;;;;;4187813;28;20461;-77
2022/04/21 01:18:56;;;;;;;8.47;3.13;;;9.30;99.90;;;;;;4180944;28;20556;-79
2022/04/21 01:20:59;;;;;;;4.63;3.07;;;9.30;99.90;;;;;;4181867;28;20325;-78
2022/04/21 01:23:01;;;;;;;4.73;3.20;;;9.30;99.90;;;;;;4170887;28;20489;-78
2022/04/21 01:25:03;;;;;;;7.17;2.70;;;9.40;99.90;;;;;;4182036;28;20206;-79
2022/04/21 01:27:05;;;;;;;4.73;2.80;;;9.30;99.90;;;;;;4183070;28;20217;-78
2022/04/21 01:29:07;;;;;;;5.70;3.00;;;9.30;99.90;;;;;;4182928;28;20456;-76
2022/04/21 01:31:09;;;;;;;4.40;2.90;;;9.30;99.90;;;;;;4183191;28;20214;-77
2022/04/21 01:33:10;;;;;;;3.77;2.90;;;9.30;99.90;;;;;;4165857;28;20486;-76
2022/04/21 01:35:13;;;;;;;6.53;3.20;;;9.30;99.90;;;;;;4175818;28;20937;-77
2022/04/21 01:41:54;;;;;;;6.20;3.20;;;9.30;99.90;;;;;;4181922;28;20530;-77
2022/04/21 01:43:56;;;;;;;7.90;3.40;;;9.20;99.90;;;;;;4181211;28;20214;-77
2022/04/21 01:45:58;;;;;;;5.90;3.27;;;9.30;99.90;;;;;;4181596;28;20453;-76
2022/04/21 01:48:00;;;;;;;7.77;3.30;;;9.30;99.90;;;;;;4168480;28;20647;-76
2022/04/21 01:50:07;;;;;;;8.60;3.40;;;9.30;99.90;;;;;;4173630;28;20659;-77
2022/04/21 01:52:08;;;;;;;4.87;3.20;;;9.30;99.90;;;;;;4182565;28;20579;-76
2022/04/21 01:54:11;;;;;;;4.63;2.83;;;9.20;99.90;;;;;;4176738;28;20210;-76
2022/04/21 01:56:13;;;;;;;7.60;3.30;;;9.20;99.90;;;;;;4181105;28;20624;-77
2022/04/21 01:58:15;;;;;;;4.70;3.17;;;9.20;99.90;;;;;;4180257;28;20211;-80
2022/04/21 02:00:17;;;;;;;5.87;3.23;;;9.20;99.90;;;;;;4180889;28;20600;-76
2022/04/21 02:02:19;;;;;;;6.70;3.17;;;9.20;99.90;;;;;;4186251;28;20887;-76
2022/04/21 02:04:21;;;;;;;6.60;2.90;;;9.20;99.90;;;;;;4175781;28;20475;-77
2022/04/21 02:06:22;;;;;;;6.30;3.07;;;9.20;99.90;;;;;;4178057;28;20457;-77
2022/04/21 02:08:24;;;;;;;5.63;3.10;;;9.20;99.90;;;;;;4182507;28;20734;-77
2022/04/21 02:10:27;;;;;;;6.27;2.90;;;9.20;99.90;;;;;;4182776;28;20471;-79
2022/04/21 02:12:29;;;;;;;5.53;3.00;;;9.20;99.90;;;;;;4170805;28;21087;-77
2022/04/21 02:14:30;;;;;;;6.87;3.30;;;9.20;99.90;;;;;;4178452;28;20706;-76
2022/04/21 02:16:32;;;;;;;9.80;3.30;;;9.20;99.90;;;;;;4181510;28;20496;-78
2022/04/21 02:18:33;;;;;;;4.50;2.80;;;9.20;99.90;;;;;;4180922;28;20575;-76
2022/04/21 02:20:35;;;;;;;8.57;3.80;;;9.20;99.90;;;;;;4181532;28;20962;-76
2022/04/21 02:22:37;;;;;;;8.00;3.20;;;9.20;99.90;;;;;;4178071;28;20523;-76
2022/04/21 02:24:39;;;;;;;7.50;3.10;;;9.20;99.90;;;;;;4180958;28;20768;-76
2022/04/21 02:26:41;;;;;;;7.30;3.40;;;9.20;99.90;;;;;;4180745;28;20997;-78
2022/04/21 02:28:43;;;;;;;6.33;3.33;;;9.20;99.90;;;;;;4180215;28;20524;-77
2022/04/21 02:30:45;;;;;;;5.60;3.10;;;9.20;99.90;;;;;;4178401;28;20664;-76
2022/04/21 02:32:47;;;;;;;8.43;3.23;;;9.20;99.90;;;;;;4181889;28;20508;-76
2022/04/21 02:34:49;;;;;;;6.03;3.40;;;9.20;99.90;;;;;;4181573;28;20207;-78
2022/04/21 02:36:50;;;;;;;7.47;3.20;;;9.20;99.90;;;;;;4178690;28;20453;-78
2022/04/21 02:38:52;;;;;;;5.33;3.20;;;9.20;99.90;;;;;;4172581;28;20257;-76
2022/04/21 02:40:54;;;;;;;6.30;2.97;;;9.20;99.90;;;;;;4167751;28;20512;-76
2022/04/21 02:42:56;;;;;;;8.37;3.50;;;9.20;99.90;;;;;;4177437;28;21055;-76
2022/04/21 02:44:58;;;;;;;5.73;3.30;;;9.20;99.90;;;;;;4175580;28;20478;-77
2022/04/21 02:47:00;;;;;;;6.33;3.33;;;9.20;99.90;;;;;;4179607;28;20245;-76
2022/04/21 02:49:03;;;;;;;6.03;3.50;;;9.20;99.90;;;;;;4181410;28;20568;-76
2022/04/21 02:51:04;;;;;;;6.40;3.73;;;9.20;99.90;;;;;;4180914;28;20206;-76
2022/04/21 02:53:07;;;;;;;10.17;3.37;;;9.20;99.90;;;;;;4177560;28;20234;-76
2022/04/21 02:57:30;;;;;;;6.43;3.20;;;9.20;99.90;;;;;;4177210;28;20256;-76
2022/04/21 02:59:33;;;;;;;7.67;3.30;;;9.20;99.90;;;;;;4181629;28;20491;-77
2022/04/21 03:01:35;;;;;;;5.53;3.07;;;9.20;99.90;;;;;;4183779;28;20876;-78
2022/04/21 03:03:37;;;;;;;6.40;3.10;;;9.20;99.90;;;;;;4181133;28;20485;-76
2022/04/21 03:05:38;;;;;;;7.00;3.23;;;9.20;99.90;;;;;;4180333;28;20521;-77
2022/04/21 03:07:40;;;;;;;6.77;3.53;;;9.20;99.90;;;;;;4194146;28;20517;-78
2022/04/21 03:09:42;;;;;;;8.20;3.70;;;9.20;99.90;;;;;;4189837;28;20465;-77
2022/04/21 03:11:43;;;;;;;7.47;3.67;;;9.20;99.90;;;;;;4179904;28;20472;-77
2022/04/21 03:13:45;;;;;;;9.20;3.40;;;9.10;99.90;;;;;;4180471;28;20828;-77
2022/04/21 03:15:48;;;;;;;7.63;3.47;;;9.20;99.90;;;;;;4180837;28;20461;-77
2022/04/21 03:17:50;;;;;;;6.57;3.40;;;9.10;99.90;;;;;;4180335;28;20465;-78
2022/04/21 03:19:52;;;;;;;7.50;3.63;;;9.10;99.90;;;;;;4180488;28;20476;-77
2022/04/21 03:24:21;;;;;;;6.50;3.63;;;9.10;99.90;;;;;;4181177;28;20540;-76
2022/04/21 03:26:23;;;;;;;7.00;3.37;;;9.10;99.90;;;;;;4179556;28;20213;-77
2022/04/21 03:28:24;;;;;;;7.53;3.10;;;9.10;99.90;;;;;;4180166;28;20488;-78
2022/04/21 03:30:26;;;;;;;6.83;3.60;;;9.10;99.90;;;;;;4179788;28;20848;-77
2022/04/21 03:32:29;;;;;;;7.73;3.13;;;9.10;99.90;;;;;;4177030;28;20977;-76
2022/04/21 03:34:31;;;;;;;6.97;3.40;;;9.10;99.90;;;;;;4178617;28;20491;-77
2022/04/21 03:36:33;;;;;;;8.70;3.40;;;9.10;99.90;;;;;;4167719;28;21016;-78
2022/04/21 03:38:37;;;;;;;6.90;3.80;;;9.10;99.90;;;;;;4172916;28;20780;-77
2022/04/21 03:40:40;;;;;;;5.97;3.40;;;9.10;99.90;;;;;;4174685;28;20522;-77
2022/04/21 03:42:42;;;;;;;6.87;3.53;;;9.10;99.90;;;;;;4180569;28;20484;-76
2022/04/21 03:44:44;;;;;;;6.37;3.37;;;9.10;99.90;;;;;;4171980;28;20473;-77
2022/04/21 03:46:48;;;;;;;10.93;3.80;;;9.00;99.90;;;;;;4171123;28;20939;-77
2022/04/21 03:48:51;;;;;;;8.97;3.60;;;9.00;99.90;;;;;;4181245;28;20925;-77
2022/04/21 03:50:53;;;;;;;6.13;3.17;;;9.00;99.90;;;;;;4176673;28;20484;-78
2022/04/21 03:52:55;;;;;;;6.90;3.47;;;9.00;99.90;;;;;;4177899;28;20558;-77
2022/04/21 03:54:56;;;;;;;9.73;3.37;;;9.00;99.90;;;;;;4176760;28;20551;-77
2022/04/21 03:56:58;;;;;;;7.07;3.47;;;9.00;99.90;;;;;;4176523;28;20515;-78
2022/04/21 03:59:00;;;;;;;6.30;3.60;;;9.00;99.90;;;;;;4179632;28;20858;-78
2022/04/21 04:01:02;;;;;;;6.70;3.40;;;9.00;99.90;;;;;;4178446;28;20480;-78
2022/04/21 04:03:03;;;;;;;4.93;3.10;;;9.00;99.90;;;;;;4168549;28;20504;-82
2022/04/21 04:05:07;;;;;;;6.03;3.20;;;9.00;99.90;;;;;;4174483;28;20825;-78
2022/04/21 04:12:00;;;;;;;7.77;3.30;;;9.00;99.90;;;;;;4153924;28;20849;-78
2022/04/21 04:14:04;;;;;;;5.07;3.30;;;9.00;99.90;;;;;;4183450;28;20465;-78
2022/04/21 04:16:07;;;;;;;6.33;3.70;;;9.00;99.90;;;;;;4180380;28;20555;-79
2022/04/21 04:18:09;;;;;;;8.27;3.27;;;9.00;99.90;;;;;;4183458;28;20885;-79
2022/04/21 04:20:12;;;;;;;5.27;3.07;;;9.20;99.90;;;;;;4182752;28;20468;-78
2022/04/21 04:22:14;;;;;;;5.17;3.27;;;9.00;99.90;;;;;;4181900;28;20484;-78
2022/04/21 04:24:16;;;;;;;9.73;3.67;;;9.00;99.90;;;;;;4183583;28;20477;-79
2022/04/21 04:26:18;;;;;;;8.47;3.60;;;9.00;99.90;;;;;;4180805;28;20511;-79
2022/04/21 04:28:19;;;;;;;6.47;3.27;;;9.00;99.90;;;;;;4182163;28;20449;-77
2022/04/21 04:30:21;;;;;;;7.43;3.50;;;9.00;99.90;;;;;;4182446;28;20464;-79
2022/04/21 04:32:23;;;;;;;9.83;5.23;;;9.00;99.90;;;;;;4176821;28;20488;-78
2022/04/21 04:34:25;;;;;;;27.37;11.57;;;9.00;99.90;;;;;;4181994;28;20949;-78
2022/04/21 04:36:30;;;;;;;12.80;5.70;;;9.00;99.90;;;;;;4183739;28;20590;-78
2022/04/21 04:38:32;;;;;;;8.13;4.23;;;9.00;99.90;;;;;;4182444;28;21044;-79
2022/04/21 04:40:33;;;;;;;11.43;4.07;;;9.00;99.90;;;;;;4173882;28;21008;-78
2022/04/21 04:42:34;;;;;;;7.20;3.40;;;9.00;99.90;;;;;;4183811;28;20477;-79
2022/04/21 04:44:36;;;;;;;10.50;3.63;;;9.00;99.90;;;;;;4182533;28;20490;-79
2022/04/21 04:46:37;;;;;;;6.70;3.30;;;9.00;99.90;;;;;;4182075;28;20211;-79
2022/04/21 04:48:39;;;;;;;10.37;3.60;;;9.00;99.90;;;;;;4180655;28;20564;-78
2022/04/21 04:50:41;;;;;;;6.83;3.20;;;9.00;99.90;;;;;;4181505;28;20472;-78
2022/04/21 04:52:44;;;;;;;7.07;3.37;;;9.00;99.90;;;;;;4179998;28;20490;-77
2022/04/21 04:54:46;;;;;;;6.30;3.20;;;9.00;99.90;;;;;;4174565;28;20354;-80
2022/04/21 04:56:48;;;;;;;7.13;3.40;;;9.00;99.90;;;;;;4178113;28;20507;-78
2022/04/21 04:58:51;;;;;;;5.63;3.23;;;9.00;99.90;;;;;;4180103;28;20491;-80
2022/04/21 05:00:53;;;;;;;9.20;3.70;;;9.10;99.90;;;;;;4179686;28;20514;-79
2022/04/21 05:02:56;;;;;;;5.23;3.47;;;9.00;99.90;;;;;;4174302;28;20496;-79
2022/04/21 05:04:57;;;;;;;7.40;4.57;;;9.00;99.90;;;;;;4180969;28;20536;-79
2022/04/21 05:06:59;;;;;;;9.37;5.23;;;9.00;99.90;;;;;;4182364;28;20464;-80
2022/04/21 05:09:03;;;;;;;10.30;3.80;;;8.90;99.90;;;;;;4181874;28;20499;-80
2022/04/21 05:11:04;;;;;;;9.27;3.93;;;9.00;99.90;;;;;;4177146;28;20472;-82
2022/04/21 05:13:06;;;;;;;5.37;2.93;;;8.90;99.90;;;;;;4180804;28;20526;-78
2022/04/21 05:15:09;;;;;;;6.03;3.07;;;8.90;99.90;;;;;;4178444;28;20481;-86
2022/04/21 05:17:11;;;;;;;6.77;3.43;;;9.00;99.90;;;;;;4179882;28;20218;-78
2022/04/21 05:19:14;;;;;;;5.40;3.10;;;9.00;99.90;;;;;;4176555;28;20472;-79
2022/04/21 05:21:16;;;;;;;5.40;2.80;;;9.00;99.90;;;;;;4179533;28;20544;-77
2022/04/21 05:23:20;;;;;;;5.73;3.53;;;9.00;99.90;;;;;;4181589;28;20849;-77
2022/04/21 05:25:27;;;;;;;5.50;3.20;;;9.00;99.90;;;;;;4176905;28;20970;-77
2022/04/21 05:27:30;;;;;;;5.83;2.90;;;9.00;99.90;;;;;;4179780;28;20445;-78
2022/04/21 05:31:55;;;;;;;5.60;2.60;;;9.00;99.90;;;;;;4179624;28;20425;-77
2022/04/21 05:33:57;;;;;;;9.63;3.37;;;9.00;99.90;;;;;;4170524;28;20500;-77
2022/04/21 05:36:00;;;;;;;8.93;3.27;;;9.00;99.90;;;;;;4162232;28;20515;-79
2022/04/21 05:38:03;;;;;;;12.50;2.77;;;9.00;99.90;;;;;;4164171;28;20461;-78
2022/04/21 05:40:06;;;;;;;8.40;3.27;;;9.10;99.90;;;;;;4163213;28;20967;-79
2022/04/21 05:42:14;;;;;;;6.87;2.83;;;9.00;99.90;;;;;;4162436;28;20488;-77
2022/04/21 05:44:16;;;;;;;10.03;3.47;;;9.10;99.90;;;;;;4163006;28;21668;-77
2022/04/21 05:46:19;;;;;;;8.13;3.40;;;9.10;99.90;;;;;;4164248;28;20472;-81
2022/04/21 05:48:24;;;;;;;4.80;2.70;;;9.10;99.90;;;;;;4162887;28;21045;-77
2022/04/21 05:50:27;;;;;;;6.33;3.10;;;9.10;99.90;;;;;;4162566;28;20537;-78
2022/04/21 05:52:30;;;;;;;6.77;2.77;;;9.10;99.90;;;;;;4160719;28;20484;-79
2022/04/21 05:54:33;;;;;;;5.90;2.93;;;9.10;99.90;;;;;;4164820;28;20464;-77
2022/04/21 05:56:36;;;;;;;7.20;3.23;;;9.10;99.90;;;;;;4162153;28;21043;-79
2022/04/21 05:58:39;;;;;;;6.83;3.03;;;9.10;99.90;;;;;;4164511;28;20500;-78
2022/04/21 06:00:41;;;;;;;7.13;2.60;;;9.10;99.90;;;;;;4165465;28;20457;-78
2022/04/21 06:02:42;;;;;;;7.90;2.90;;;9.10;99.90;;;;;;4167181;28;20921;-78
2022/04/21 06:04:44;;;;;;;6.97;3.40;;;9.10;99.90;;;;;;4166385;28;20460;-77
2022/04/21 06:06:46;;;;;;;7.67;2.67;;;9.10;99.90;;;;;;4169386;28;20464;-79
2022/04/21 06:08:47;;;;;;;5.73;3.03;;;9.10;99.90;;;;;;4167372;28;20301;-78
2022/04/21 06:10:50;;;;;;;7.70;2.80;;;9.10;99.90;;;;;;4168963;28;20219;-78
2022/04/21 06:12:51;;;;;;;6.77;1.97;;;9.10;99.90;;;;;;4165335;28;20560;-80
2022/04/21 06:14:54;;;;;;;8.67;2.77;;;9.20;99.90;;;;;;4165767;28;20211;-80
2022/04/21 06:16:56;;;;;;;5.63;2.80;;;9.20;99.90;;;;;;4161401;28;20531;-79
2022/04/21 06:18:58;;;;;;;6.97;2.80;;;9.20;99.90;;;;;;4162227;28;20206;-77
2022/04/21 06:21:00;;;;;;;6.60;2.87;;;9.20;99.90;;;;;;4158839;28;20214;-78
2022/04/21 06:23:03;;;;;;;5.43;3.30;;;9.20;99.90;;;;;;4162304;28;20485;-77
2022/04/21 06:25:05;;;;;;;8.97;3.17;;;9.20;99.90;;;;;;4160056;28;21205;-77
2022/04/21 06:27:07;;;;;;;8.03;3.00;;;9.20;99.90;;;;;;4161093;28;20536;-77
2022/04/21 06:29:09;;;;;;;6.13;3.10;;;9.20;99.90;;;;;;4157159;28;20648;-81
2022/04/21 06:31:12;;;;;;;10.70;3.13;;;9.20;99.90;;;;;;4159384;28;20547;-80
2022/04/21 06:33:14;;;;;;;5.43;2.90;;;9.30;99.90;;;;;;4162423;28;21012;-79
2022/04/21 06:35:17;;;;;;;11.37;3.33;;;9.30;99.90;;;;;;4161565;28;20518;-78
2022/04/21 06:37:19;;;;;;;11.40;3.10;;;9.30;99.90;;;;;;4166014;28;20875;-78
2022/04/21 06:39:25;;;;;;;13.10;3.50;;;9.30;99.90;;;;;;4170429;28;20219;-78
2022/04/21 06:41:27;;;;;;;6.20;3.57;;;9.30;99.90;;;;;;4162873;28;20449;-80
2022/04/21 06:48:10;;;;;;;10.60;3.67;;;9.30;99.90;;;;;;4159980;28;20478;-78
2022/04/21 06:50:11;;;;;;;7.10;3.07;;;9.30;99.90;;;;;;4159714;28;21091;-78
2022/04/21 06:52:13;;;;;;;10.73;4.10;;;9.30;99.90;;;;;;4162276;28;20872;-78
2022/04/21 06:54:15;;;;;;;9.97;4.27;;;9.30;99.90;;;;;;4157668;28;20831;-79
2022/04/21 06:56:17;;;;;;;9.30;3.53;;;9.30;99.90;;;;;;4160965;28;20264;-79
2022/04/21 06:58:18;;;;;;;6.13;3.30;;;9.40;99.90;;;;;;4161641;28;20206;-79
2022/04/21 07:00:20;;;;;;;10.27;4.27;;;9.40;99.90;;;;;;4161514;28;20207;-80
2022/04/21 07:02:27;;;;;;;11.00;4.10;;;9.40;99.90;;;;;;4160924;28;20246;-79
2022/04/21 07:04:30;;;;;;;10.53;4.47;;;9.40;99.90;;;;;;4159268;28;20469;-77
2022/04/21 07:06:32;;;;;;;10.23;4.10;;;9.40;99.90;;;;;;4160594;28;20523;-77
2022/04/21 07:08:34;;;;;;;7.67;4.07;;;9.40;99.90;;;;;;4160222;28;20260;-79
2022/04/21 07:10:36;;;;;;;10.77;4.10;;;9.40;99.90;;;;;;4160718;28;20277;-78
2022/04/21 07:12:38;;;;;;;12.23;3.90;;;9.40;99.90;;;;;;4162841;28;20569;-77
2022/04/21 07:14:41;;;;;;;7.10;3.80;;;9.40;99.90;;;;;;4164586;28;20206;-77
2022/04/21 07:16:43;;;;;;;8.93;3.80;;;9.40;99.90;;;;;;4163308;28;20248;-79
2022/04/21 07:18:45;;;;;;;11.27;4.03;;;9.50;99.90;;;;;;4166497;28;20319;-78
2022/04/21 07:20:48;;;;;;;7.83;3.73;;;9.50;99.90;;;;;;4163360;28;20222;-76
2022/04/21 07:22:49;;;;;;;8.97;4.00;;;9.50;99.90;;;;;;4162304;28;20704;-78
2022/04/21 07:24:51;;;;;;;8.63;3.77;;;9.60;99.90;;;;;;4163123;28;20241;-79
2022/04/21 07:26:53;;;;;;;13.53;3.70;;;9.60;99.90;;;;;;4163041;28;20215;-77
2022/04/21 07:28:56;;;;;;;13.07;3.77;;;9.60;99.90;;;;;;4161589;28;20336;-77
2022/04/21 07:30:58;;;;;;;11.23;3.87;;;9.70;99.90;;;;;;4162235;28;20347;-79
2022/04/21 07:33:00;;;;;;;6.67;2.97;;;9.70;99.90;;;;;;4162362;28;20241;-78
2022/04/21 07:35:02;;;;;;;7.60;3.87;;;9.80;99.90;;;;;;4166103;28;20210;-79
2022/04/21 07:37:07;;;;;;;10.43;3.53;;;9.80;99.90;;;;;;4161834;28;20210;-78
2022/04/21 07:39:08;;;;;;;12.47;3.60;;;9.90;99.90;;;;;;4157885;28;20230;-78
2022/04/21 07:41:10;;;;;;;11.17;3.83;;;9.90;99.90;;;;;;4158698;28;20644;-78
2022/04/21 07:43:12;;;;;;;9.60;3.57;;;10.00;99.90;;;;;;4159621;28;20234;-77
2022/04/21 07:45:13;;;;;;;11.17;4.23;;;10.10;99.90;;;;;;4159943;28;20229;-78
2022/04/21 07:47:15;;;;;;;6.23;3.17;;;10.10;99.90;;;;;;4158586;28;22755;-78
2022/04/21 07:51:36;;;;;;;7.57;3.00;;;10.20;99.90;;;;;;4160604;28;20315;-77
2022/04/21 07:53:38;;;;;;;6.33;3.30;;;10.20;99.90;;;;;;4160627;28;20288;-78
2022/04/21 07:55:40;;;;;;;8.70;3.53;;;10.20;99.90;;;;;;4160671;28;20314;-78
2022/04/21 07:57:43;;;;;;;8.70;3.73;;;10.20;99.90;;;;;;4162067;28;20265;-78
2022/04/21 07:59:45;;;;;;;8.23;3.60;;;10.30;99.90;;;;;;4161210;28;20219;-78
2022/04/21 08:01:46;;;;;;;14.27;3.60;;;10.30;99.90;;;;;;4163331;28;20344;-78
2022/04/21 08:03:48;;;;;;;7.80;3.23;;;10.30;99.90;;;;;;4160281;28;20549;-76
2022/04/21 08:05:50;;;;;;;6.37;3.00;;;10.30;99.90;;;;;;4160043;28;20595;-77
2022/04/21 08:07:51;;;;;;;7.33;3.37;;;10.30;99.90;;;;;;4163314;28;20218;-81
2022/04/21 08:09:54;;;;;;;9.03;3.90;;;10.30;99.90;;;;;;4160851;28;20646;-78
2022/04/21 08:11:56;;;;;;;11.03;4.30;;;10.30;99.90;;;;;;4160581;28;20288;-78
2022/04/21 08:14:00;;;;;;;12.70;4.20;;;10.30;99.90;;;;;;4160596;28;20217;-77
2022/04/21 08:16:02;;;;;;;8.30;4.07;;;10.30;99.90;;;;;;4162300;28;20318;-78
2022/04/21 08:18:05;;;;;;;10.27;4.00;;;10.30;99.90;;;;;;4163011;28;20273;-78
2022/04/21 08:20:08;;;;;;;5.47;3.43;;;10.30;99.90;;;;;;4158639;28;20274;-78
2022/04/21 08:22:10;;;;;;;11.03;3.63;;;10.30;99.90;;;;;;4158450;28;20234;-77
2022/04/21 08:33:46;;;;;;;6.63;3.07;;;10.30;99.90;;;;;;4115436;28;20683;-76
2022/04/21 08:35:50;;;;;;;7.80;3.47;;;10.30;99.90;;;;;;4161290;28;20210;-77
2022/04/21 08:37:52;;;;;;;8.40;3.87;;;10.30;99.90;;;;;;4160966;28;20773;-78
2022/04/21 08:39:54;;;;;;;7.67;3.30;;;10.40;99.90;;;;;;4165563;28;20265;-77
2022/04/21 08:42:04;;;;;;;7.90;4.07;;;10.40;99.90;;;;;;4169401;28;20238;-76
2022/04/21 08:44:07;;;;;;;7.73;4.30;;;10.40;99.90;;;;;;4171729;28;20210;-78
2022/04/21 08:46:13;;;;;;;9.17;4.10;;;10.40;99.90;;;;;;4167562;28;20486;-76
2022/04/21 08:48:17;;;;;;;6.27;3.27;;;10.40;99.90;;;;;;4171808;28;20211;-76
2022/04/21 08:50:19;;;;;;;9.20;3.40;;;10.50;99.90;;;;;;4170222;28;20231;-78
2022/04/21 08:52:21;;;;;;;9.53;3.70;;;10.50;99.90;;;;;;4166476;28;20230;-76
2022/04/21 08:54:24;;;;;;;8.80;4.00;;;10.50;99.90;;;;;;4161980;28;20327;-77
2022/04/21 08:56:26;;;;;;;13.03;4.50;;;10.50;99.90;;;;;;4162805;28;20275;-76
2022/04/21 08:58:29;;;;;;;8.80;4.50;;;10.50;99.90;;;;;;4164316;28;20207;-78
2022/04/21 09:00:32;;;;;;;8.80;3.63;;;10.50;99.90;;;;;;4164302;28;20218;-76
2022/04/21 09:02:34;;;;;;;9.30;4.20;;;10.50;99.90;;;;;;4164618;28;20244;-79
2022/04/21 09:04:36;;;;;;;11.20;4.70;;;10.60;99.90;;;;;;4165999;28;20642;-77
2022/04/21 09:06:38;;;;;;;10.77;4.47;;;10.60;99.90;;;;;;4169245;28;20211;-78
2022/04/21 09:08:40;;;;;;;9.03;3.97;;;10.60;99.90;;;;;;4171235;28;20215;-78
2022/04/21 09:10:42;;;;;;;9.13;4.27;;;10.60;99.90;;;;;;4167851;28;20235;-79
2022/04/21 09:12:45;;;;;;;9.90;4.30;;;10.60;99.90;;;;;;4162394;28;20241;-78
2022/04/21 09:14:49;;;;;;;9.23;4.50;;;10.70;99.90;;;;;;4162689;28;20293;-76
2022/04/21 09:16:50;;;;;;;8.33;4.13;;;10.60;99.90;;;;;;4157755;28;20227;-77
2022/04/21 09:19:02;;;;;;;10.37;4.30;;;10.60;99.90;;;;;;4159353;28;20845;-77
2022/04/21 09:21:11;;;;;;;8.50;3.90;;;10.70;99.90;;;;;;4160335;28;20263;-79
2022/04/21 09:23:13;;;;;;;10.50;4.23;;;10.70;99.90;;;;;;4159281;28;20268;-77
2022/04/21 09:25:15;;;;;;;10.07;4.63;;;10.70;99.90;;;;;;4158737;28;20591;-79
2022/04/21 09:27:16;;;;;;;9.17;3.90;;;10.70;99.90;;;;;;4158490;28;20219;-79
2022/04/21 09:29:28;;;;;;;6.80;4.20;;;10.80;99.90;;;;;;4160019;28;20555;-77
2022/04/21 09:31:31;;;;;;;8.13;4.63;;;10.80;99.90;;;;;;4159053;28;20738;-78
2022/04/21 09:33:37;;;;;;;12.37;4.50;;;10.80;99.90;;;;;;4159619;28;20737;-77
2022/04/21 09:35:40;;;;;;;7.87;4.17;;;10.80;99.90;;;;;;4158108;28;20238;-79
2022/04/21 09:37:46;;;;;;;10.40;4.80;;;10.80;99.90;;;;;;4156990;28;20222;-78
2022/04/21 09:39:51;;;;;;;11.77;4.77;;;10.80;99.90;;;;;;4158180;28;20748;-77
2022/04/21 09:41:54;;;;;;;11.83;5.00;;;10.80;99.90;;;;;;4162554;28;20325;-78
2022/04/21 09:46:07;;;;;;;17.40;6.13;;;10.80;99.90;;;;;;4162696;28;20218;-79
2022/04/21 09:46:27;;;;;;;33.33;10.80;;;10.80;99.90;;;;;;4163088;28;20216;-80
2022/04/21 09:48:31;;;;;;;32.00;9.97;;;10.80;99.90;;;;;;4166715;28;20570;-80
2022/04/21 09:50:33;;;;;;;20.47;8.27;;;10.90;99.90;;;;;;4162272;28;20230;-79
2022/04/21 09:52:37;;;;;;;16.70;6.73;;;10.90;99.90;;;;;;4165823;28;21070;-79
2022/04/21 09:54:40;;;;;;;20.43;7.17;;;10.90;99.90;;;;;;4161904;28;20212;-78
2022/04/21 09:56:42;;;;;;;16.73;6.47;;;10.90;99.90;;;;;;4164530;28;20643;-76
2022/04/21 09:58:46;;;;;;;19.07;7.03;;;10.90;99.90;;;;;;4165768;28;20215;-77
2022/04/21 10:00:47;;;;;;;13.73;5.90;;;11.00;99.90;;;;;;4164666;28;20633;-76
2022/04/21 10:02:50;;;;;;;12.53;5.90;;;11.00;99.90;;;;;;4163908;28;20239;-79
2022/04/21 10:04:55;;;;;;;10.23;4.97;;;11.10;99.90;;;;;;4161924;28;20220;-77
2022/04/21 10:06:58;;;;;;;12.10;5.03;;;11.10;99.90;;;;;;4161125;28;20216;-77
2022/04/21 10:09:00;;;;;;;12.93;6.00;;;11.20;99.90;;;;;;4163026;28;20207;-79
2022/04/21 10:11:03;;;;;;;13.50;5.27;;;11.20;99.90;;;;;;4164365;28;20222;-77
2022/04/21 10:13:06;;;;;;;13.90;5.33;;;11.20;99.90;;;;;;4166637;28;20718;-78
2022/04/21 10:15:09;;;;;;;10.93;4.90;;;11.20;99.90;;;;;;4168911;28;20221;-78
2022/04/21 10:17:12;;;;;;;11.63;5.10;;;11.30;99.90;;;;;;4161557;28;20312;-76
2022/04/21 10:19:16;;;;;;;12.27;5.23;;;11.40;99.90;;;;;;4163078;28;21672;-78
2022/04/21 10:21:28;;;;;;;8.80;4.60;;;11.40;99.90;;;;;;4164250;28;21271;-78
2022/04/21 10:23:31;;;;;;;8.47;4.43;;;11.50;99.90;;;;;;4163430;28;20273;-77
2022/04/21 10:25:38;;;;;;;10.00;4.87;;;11.60;99.90;;;;;;4160768;28;20261;-77
2022/04/21 10:27:43;;;;;;;12.00;5.00;;;11.60;99.90;;;;;;4162565;28;20219;-78
2022/04/21 10:29:50;;;;;;;11.63;4.90;;;11.80;99.90;;;;;;4163697;28;20222;-78
2022/04/21 10:31:55;;;;;;;12.10;5.60;;;11.80;99.90;;;;;;4161414;28;20368;-78
2022/04/21 10:33:59;;;;;;;13.87;5.90;;;11.90;99.90;;;;;;4159939;28;20213;-77
2022/04/21 10:36:00;;;;;;;13.60;5.63;;;12.00;99.90;;;;;;4159542;28;20212;-78
2022/04/21 10:38:26;;;;;;;12.53;5.40;;;12.10;99.90;;;;;;4160447;28;20698;-78
2022/04/21 10:40:29;;;;;;;12.23;5.60;;;12.00;99.90;;;;;;4159260;28;20328;-77
2022/04/21 10:42:55;;;;;;;18.77;6.10;;;12.10;99.90;;;;;;4160373;28;20231;-77
2022/04/21 10:44:58;;;;;;;12.40;6.20;;;12.10;99.90;;;;;;4161100;28;20259;-77
2022/04/21 10:47:27;;;;;;;18.30;6.67;;;12.20;99.90;;;;;;4160568;28;20239;-77
2022/04/21 10:49:54;;;;;;;13.03;5.70;;;12.20;99.90;;;;;;4158427;28;20275;-77
2022/04/21 10:59:11;;;;;;;14.33;6.43;;;12.20;99.90;;;;;;4162758;28;20502;-77
2022/04/21 11:01:14;;;;;;;12.23;6.40;;;12.10;99.90;;;;;;4159301;28;20210;-76
2022/04/21 11:03:26;;;;;;;14.80;6.57;;;12.10;99.90;;;;;;4162884;28;23033;-77
2022/04/21 11:05:33;;;;;;;12.43;6.30;;;12.10;99.90;;;;;;4159370;28;20217;-78
2022/04/21 11:07:50;;;;;;;16.40;6.90;;;12.20;99.90;;;;;;4164194;28;20730;-78
2022/04/21 11:09:54;;;;;;;14.20;6.53;;;12.10;99.90;;;;;;4161622;28;20229;-78
2022/04/21 11:11:57;;;;;;;19.30;8.80;;;12.10;99.90;;;;;;4158104;28;20248;-78
2022/04/21 11:14:06;;;;;;;16.37;7.87;;;12.10;99.90;;;;;;4159951;28;20213;-78
2022/04/21 11:16:08;;;;;;;15.97;8.20;;;12.10;99.90;;;;;;4163863;28;20213;-80
2022/04/21 11:18:11;;;;;;;15.97;7.67;;;12.10;99.90;;;;;;4159124;28;20267;-80
2022/04/21 11:20:26;;;;;;;17.83;7.73;;;12.10;99.90;;;;;;4158905;28;20211;-80
2022/04/21 11:22:40;;;;;;;21.60;8.13;;;12.10;99.90;;;;;;4162407;28;20748;-80
2022/04/21 11:25:03;;;;;;;15.73;7.80;;;12.10;99.90;;;;;;4162908;28;20544;-79
2022/04/21 11:27:12;;;;;;;18.17;7.83;;;12.20;99.90;;;;;;4163549;28;20607;-79
2022/04/21 11:29:14;;;;;;;14.93;7.73;;;12.20;99.90;;;;;;4163016;28;20299;-79